17°C
Woerden, The Nederlands
Taal:  Nederlands
Updated05/07/2020 06:10 
 

Nearby METAR Reports

EHAM - Amsterdam/Schiph, Netherlands
Distance from station: N 27km
Updated: 05/07/2020 05:55
Light drizzle, Zwaar bewolkt
Light drizzle, Zwaar bewolkt
 Wind van ZW
Wind: ZW 37 km/h
Temperatuur: 16°C
Dauwpunt: 15°C
Vochtigheid: 94%
Barometer: 1007 hPa
Overzicht: Light Drizzle
Clouds: Zwaar bewolkt
Visibility: 7 km
Cloud details: Meestal bewolkt 244 m
Zwaar bewolkt 305 m
2020/07/05 03:55 EHAM 050355Z 23020KT 200V260 7000 -DZ BKN008 OVC010 16/15 Q1007 TEMPO 8000
EHRD - Rotterdam Airpor, Netherlands
Distance from station: WZW 30km
Updated: 05/07/2020 05:55
Zwaar bewolkt
Zwaar bewolkt
 Wind van ZW
Wind: ZW 33 km/h
Temperatuur: 17°C
Dauwpunt: 15°C
Vochtigheid: 88%
Barometer: 1009 hPa
Clouds: Zwaar bewolkt
Visibility: 10 km
Cloud details: Zwaar bewolkt 305 m
2020/07/05 03:55 EHRD 050355Z AUTO 23018KT 200V260 9999 OVC010 17/15 Q1009 NOSIG
 
EHGR - Gilze-Rijen Rnla, Netherlands
Distance from station: Z 57km
Updated: 05/07/2020 06:11
Zwaar bewolkt
Zwaar bewolkt
 Wind van ZW
Wind: ZW 20 km/h
Temperatuur: 18°C
Dauwpunt: 15°C
Vochtigheid: 83%
Barometer: 1010 hPa
Clouds: Zwaar bewolkt
Visibility: 10 km
Cloud details: Meestal bewolkt 427 m
Zwaar bewolkt 518 m
2020/07/05 04:11 EHGR 050411Z AUTO 23011KT 200V270 9999 BKN014 OVC017 18/15 Q1010
EHDL - Deelen Rnlafb, Netherlands
Distance from station: O 71km
Updated: 05/07/2020 05:55
Meestal bewolkt
Meestal bewolkt
 Wind van ZW
Wind: ZW 28 km/h
Temperatuur: 17°C
Dauwpunt: 16°C
Vochtigheid: 94%
Barometer: 1009 hPa
Clouds: Meestal bewolkt
Visibility: 10 km
Cloud details: Gedeeltelijk bewolkt 183 m
Meestal bewolkt 244 m
Meestal bewolkt 274 m
2020/07/05 03:55 EHDL 050355Z AUTO 23015KT 150V270 9999 SCT006 BKN008 BKN009 17/16 Q1009 YLO
 
EHVK - Volkel Rnlafb, Netherlands
Distance from station: ZO 77km
Updated: 05/07/2020 05:55
Zwaar bewolkt
Zwaar bewolkt
 Wind van ZW
Wind: ZW 30 km/h
Temperatuur: 18°C
Dauwpunt: 15°C
Vochtigheid: 83%
Barometer: 1010 hPa
Clouds: Zwaar bewolkt
Visibility: 10 km
Cloud details: Zwaar bewolkt 457 m
2020/07/05 03:55 EHVK 050355Z AUTO 23016KT 200V260 9999 OVC015 18/15 Q1010 WHT
EHWO - Woensdrecht Rnla, Netherlands
Distance from station: ZZW 78km
Updated: 05/07/2020 05:55
Zwaar bewolkt
Zwaar bewolkt
 Wind van ZW
Wind: ZW 30 km/h
Temperatuur: 17°C
Dauwpunt: 15°C
Vochtigheid: 88%
Barometer: 1010 hPa
Clouds: Zwaar bewolkt
Visibility: 10 km
Cloud details: Meestal bewolkt 396 m
Zwaar bewolkt 457 m
2020/07/05 03:55 EHWO 050355Z AUTO 23016KT 190V260 9999 BKN013 OVC015 17/15 Q1010 GRN
 
EHEH - Eindhoven Rnlafb, Netherlands
Distance from station: ZZO 81km
Updated: 05/07/2020 05:55
Zwaar bewolkt
Zwaar bewolkt
 Wind van ZW
Wind: ZW 30 km/h
Temperatuur: 18°C
Dauwpunt: 15°C
Vochtigheid: 83%
Barometer: 1010 hPa
Clouds: Zwaar bewolkt
Visibility: 10 km
Cloud details: Zwaar bewolkt 457 m
2020/07/05 03:55 EHEH 050355Z AUTO 22016KT 190V260 9999 OVC015 18/15 Q1010 WHT
EHSC - Goeree Le Sea, Netherlands
Distance from station: W 81km
Updated: 05/07/2020 05:55

 Wind van WZW
Wind: WZW 70 km/h
Temperatuur: 16°C
Dauwpunt: 15°C
Vochtigheid: 94%
Barometer: 1008 hPa
Visibility: 9 km
2020/07/05 03:55 EHSC 050355Z AUTO 24038KT 9000 ///////// 16/15 Q1008 W18/H26